createdAt,value
2022-10-17T00:02:24.134Z,97879.44
2022-10-17T00:04:50.719Z,97870.13
2022-10-17T00:07:17.064Z,97874.13
2022-10-17T00:09:43.776Z,97870.47
2022-10-17T00:12:10.651Z,97880.31
2022-10-17T00:14:37.122Z,97875.88
2022-10-17T00:17:03.511Z,97877.34
2022-10-17T00:19:29.816Z,97887.06
2022-10-17T00:21:56.332Z,97877.38
2022-10-17T00:24:22.668Z,97875.06
2022-10-17T00:26:48.975Z,97880.59
2022-10-17T00:29:15.365Z,97887.69
2022-10-17T00:31:41.763Z,97890.75
2022-10-17T00:34:08.191Z,97886.09
2022-10-17T00:36:34.902Z,97889.72
2022-10-17T00:39:01.217Z,97901.50
2022-10-17T00:41:29.560Z,97896.06
2022-10-17T00:43:55.885Z,97901.13
2022-10-17T00:46:22.845Z,97901.44
2022-10-17T00:48:50.904Z,97895.81
2022-10-17T00:51:19.577Z,97894.25
2022-10-17T00:53:46.568Z,97901.78
2022-10-17T00:56:13.604Z,97892.59
2022-10-17T00:58:40.101Z,97890.00
2022-10-17T01:01:06.556Z,97898.31
2022-10-17T01:03:33.097Z,97885.25
2022-10-17T01:05:59.867Z,97896.09
2022-10-17T01:08:26.818Z,97895.91
2022-10-17T01:11:11.324Z,97890.97
2022-10-17T01:13:46.758Z,97894.16
2022-10-17T01:16:35.221Z,97894.22
2022-10-17T01:19:38.053Z,97901.75
2022-10-17T01:22:46.437Z,97888.94
2022-10-17T01:25:37.307Z,97895.28
2022-10-17T01:28:24.374Z,97896.59
2022-10-17T01:31:12.117Z,97901.44
2022-10-17T01:33:50.836Z,97896.84
2022-10-17T01:36:48.095Z,97901.22
2022-10-17T01:39:50.496Z,97896.38
2022-10-17T01:42:19.593Z,97895.63
2022-10-17T01:45:27.125Z,97891.75
2022-10-17T01:47:56.876Z,97891.72
2022-10-17T01:50:30.034Z,97877.25
2022-10-17T01:53:03.875Z,97875.84
2022-10-17T01:55:42.217Z,97878.97
2022-10-17T01:58:13.922Z,97876.41
2022-10-17T02:00:42.992Z,97874.34
2022-10-17T02:03:16.469Z,97875.16
2022-10-17T02:05:45.021Z,97875.41
2022-10-17T02:08:12.692Z,97871.72
2022-10-17T02:11:01.666Z,97878.88
2022-10-17T02:13:53.427Z,97874.25
2022-10-17T02:16:46.458Z,97879.78
2022-10-17T02:19:30.676Z,97871.91
2022-10-17T02:22:16.610Z,97878.88
2022-10-17T02:24:52.544Z,97869.31
2022-10-17T02:27:47.672Z,97875.88
2022-10-17T02:30:46.407Z,97874.00
2022-10-17T02:33:27.893Z,97881.22
2022-10-17T02:36:01.048Z,97877.88
2022-10-17T02:38:30.516Z,97876.19
2022-10-17T02:40:57.677Z,97874.16
2022-10-17T02:43:25.129Z,97879.06
2022-10-17T02:45:52.630Z,97870.91
2022-10-17T02:48:32.689Z,97883.09
2022-10-17T02:51:09.516Z,97877.09
2022-10-17T02:53:54.411Z,97882.75
2022-10-17T02:56:22.101Z,97877.56
2022-10-17T02:58:54.096Z,97876.41
2022-10-17T03:01:21.805Z,97888.59
2022-10-17T03:03:48.315Z,97880.44
2022-10-17T03:06:15.510Z,97886.69
2022-10-17T03:08:41.885Z,97884.31
2022-10-17T03:11:08.665Z,97886.88
2022-10-17T03:13:37.587Z,97883.44
2022-10-17T03:16:06.468Z,97885.91
2022-10-17T03:18:33.336Z,97886.94
2022-10-17T03:21:01.003Z,97887.13
2022-10-17T03:23:27.980Z,97884.75
2022-10-17T03:25:55.045Z,97879.97
2022-10-17T03:28:22.009Z,97885.53
2022-10-17T03:30:48.485Z,97887.81
2022-10-17T03:33:15.034Z,97889.13
2022-10-17T03:35:41.618Z,97882.63
2022-10-17T03:38:08.578Z,97878.28
2022-10-17T03:40:34.996Z,97882.41
2022-10-17T03:43:01.556Z,97893.59
2022-10-17T03:45:29.245Z,97877.91
2022-10-17T03:47:58.809Z,97881.00
2022-10-17T03:50:25.471Z,97887.41
2022-10-17T03:52:51.973Z,97891.75
2022-10-17T03:55:18.816Z,97898.25
2022-10-17T03:57:45.793Z,97899.50
2022-10-17T04:00:13.948Z,97901.13
2022-10-17T04:02:50.437Z,97907.03
2022-10-17T04:05:18.747Z,97909.84
2022-10-17T04:07:45.964Z,97912.75
2022-10-17T04:10:13.964Z,97917.16
2022-10-17T04:12:42.029Z,97923.13
2022-10-17T04:15:09.232Z,97922.41
2022-10-17T04:17:38.267Z,97924.84
2022-10-17T04:20:06.803Z,97928.16
2022-10-17T04:22:33.969Z,97934.50
2022-10-17T04:25:00.773Z,97933.81
2022-10-17T04:27:32.896Z,97942.09
2022-10-17T04:29:59.848Z,97943.72
2022-10-17T04:32:26.491Z,97944.09
2022-10-17T04:35:08.199Z,97949.63
2022-10-17T04:37:35.251Z,97942.47
2022-10-17T04:40:08.092Z,97945.25
2022-10-17T04:42:35.894Z,97948.22
2022-10-17T04:45:03.672Z,97947.38
2022-10-17T04:47:30.158Z,97941.84
2022-10-17T04:49:56.637Z,97941.25
2022-10-17T04:52:23.365Z,97935.25
2022-10-17T04:54:50.175Z,97938.44
2022-10-17T04:57:18.525Z,97946.78
2022-10-17T04:59:53.979Z,97941.03
2022-10-17T05:02:31.375Z,97940.78
2022-10-17T05:04:58.474Z,97940.44
2022-10-17T05:07:24.917Z,97949.88
2022-10-17T05:10:11.725Z,97942.69
2022-10-17T05:12:40.473Z,97942.22
2022-10-17T05:15:08.496Z,97940.56
2022-10-17T05:17:34.963Z,97937.97
2022-10-17T05:20:01.405Z,97937.22
2022-10-17T05:22:30.940Z,97933.22
2022-10-17T05:24:57.726Z,97936.44
2022-10-17T05:27:24.182Z,97938.63
2022-10-17T05:29:50.617Z,97939.94
2022-10-17T05:32:23.193Z,97941.75
2022-10-17T05:34:49.721Z,97929.59
2022-10-17T05:37:16.312Z,97940.31
2022-10-17T05:39:50.688Z,97944.00
2022-10-17T05:42:18.196Z,97949.50
2022-10-17T05:44:45.465Z,97954.09
2022-10-17T05:47:13.804Z,97958.44
2022-10-17T05:49:46.361Z,97951.50
2022-10-17T05:52:17.100Z,97949.06
2022-10-17T05:54:58.342Z,97944.09
2022-10-17T05:57:26.209Z,97941.97
2022-10-17T05:59:53.100Z,97948.13
2022-10-17T06:02:20.562Z,97950.81
2022-10-17T06:04:48.721Z,97949.63
2022-10-17T06:07:16.208Z,97951.84
2022-10-17T06:12:15.481Z,97963.28
2022-10-17T06:14:43.031Z,97961.75
2022-10-17T06:17:15.808Z,97960.81
2022-10-17T06:19:44.672Z,97956.31
2022-10-17T06:22:12.947Z,97960.56
2022-10-17T06:24:40.050Z,97966.94
2022-10-17T06:27:10.936Z,97963.28
2022-10-17T06:29:39.079Z,97964.31
2022-10-17T06:32:08.637Z,97980.91
2022-10-17T06:34:37.913Z,97983.25
2022-10-17T06:37:04.688Z,97987.31
2022-10-17T06:39:35.796Z,97990.66
2022-10-17T06:42:10.164Z,97995.41
2022-10-17T06:44:55.405Z,97996.75
2022-10-17T06:47:44.018Z,98004.47
2022-10-17T06:50:34.632Z,98011.44
2022-10-17T06:53:22.225Z,98013.97
2022-10-17T06:56:09.397Z,98007.31
2022-10-17T06:58:47.557Z,98017.31
2022-10-17T07:01:26.584Z,98021.31
2022-10-17T07:03:56.633Z,98031.81
2022-10-17T07:06:26.604Z,98030.84
2022-10-17T07:08:55.710Z,98026.69
2022-10-17T07:11:22.798Z,98028.41
2022-10-17T07:13:51.425Z,98030.53
2022-10-17T07:16:17.926Z,98027.91
2022-10-17T07:18:50.089Z,98025.56
2022-10-17T07:21:17.905Z,98035.84
2022-10-17T07:23:44.373Z,98033.28
2022-10-17T07:26:13.999Z,98036.72
2022-10-17T07:28:43.648Z,98028.91
2022-10-17T07:31:24.339Z,98030.66
2022-10-17T07:33:51.075Z,98036.63
2022-10-17T07:36:17.823Z,98032.63
2022-10-17T07:38:44.418Z,98036.00
2022-10-17T07:41:16.487Z,98032.50
2022-10-17T07:43:46.128Z,98038.25
2022-10-17T07:46:14.551Z,98034.44
2022-10-17T07:48:41.399Z,98027.38
2022-10-17T07:51:09.144Z,98031.22
2022-10-17T07:53:42.672Z,98036.25
2022-10-17T07:56:11.897Z,98033.28
2022-10-17T07:58:39.211Z,98047.00
2022-10-17T08:01:15.386Z,98038.81
2022-10-17T08:03:44.628Z,98033.66
2022-10-17T08:06:11.157Z,98043.00
2022-10-17T08:08:37.755Z,98038.09
2022-10-17T08:11:07.849Z,98044.38
2022-10-17T08:13:35.388Z,98035.63
2022-10-17T08:16:04.392Z,98038.09
2022-10-17T08:18:31.265Z,98038.66
2022-10-17T08:21:01.964Z,98035.63
2022-10-17T08:23:29.076Z,98041.91
2022-10-17T08:25:59.020Z,98047.09
2022-10-17T08:28:27.741Z,98058.00
2022-10-17T08:31:01.430Z,98057.97
2022-10-17T08:33:28.193Z,98057.94
2022-10-17T08:35:54.695Z,98059.00
2022-10-17T08:38:22.018Z,98061.44
2022-10-17T08:40:49.855Z,98053.00
2022-10-17T08:43:38.905Z,98049.69
2022-10-17T08:46:07.933Z,98050.75
2022-10-17T08:48:45.608Z,98053.72
2022-10-17T08:51:24.607Z,98058.81
2022-10-17T08:54:09.444Z,98068.06
2022-10-17T08:56:48.606Z,98056.22
2022-10-17T08:59:43.162Z,98059.22
2022-10-17T09:02:28.139Z,98057.53
2022-10-17T09:05:03.249Z,98065.97
2022-10-17T09:07:52.649Z,98061.28
2022-10-17T09:10:46.689Z,98050.00
2022-10-17T09:13:24.858Z,98058.69
2022-10-17T09:15:54.340Z,98062.47
2022-10-17T09:18:28.917Z,98066.56
2022-10-17T09:21:01.417Z,98061.59
2022-10-17T09:23:39.126Z,98066.72
2022-10-17T09:26:11.362Z,98060.63
2022-10-17T09:28:41.490Z,98056.09
2022-10-17T09:31:27.034Z,98060.38
2022-10-17T09:33:56.760Z,98055.88
2022-10-17T09:36:29.148Z,98061.06
2022-10-17T09:38:58.199Z,98060.91
2022-10-17T09:41:50.288Z,98063.56
2022-10-17T09:44:29.098Z,98060.09
2022-10-17T09:47:13.645Z,98056.34
2022-10-17T09:49:43.177Z,98061.25
2022-10-17T09:52:18.128Z,98053.53
2022-10-17T09:54:50.588Z,98057.56
2022-10-17T09:57:18.861Z,98058.59
2022-10-17T10:00:01.750Z,98058.75
2022-10-17T10:02:30.477Z,98063.94
2022-10-17T10:05:16.905Z,98061.94
2022-10-17T10:08:00.303Z,98065.50
2022-10-17T10:10:28.572Z,98066.84
2022-10-17T10:13:06.575Z,98071.63
2022-10-17T10:15:40.913Z,98074.03
2022-10-17T10:18:25.583Z,98070.94
2022-10-17T10:21:14.690Z,98071.25
2022-10-17T10:23:45.064Z,98076.06
2022-10-17T10:26:22.622Z,98070.13
2022-10-17T10:28:56.232Z,98074.31
2022-10-17T10:31:35.321Z,98071.78
2022-10-17T10:34:15.351Z,98072.09
2022-10-17T10:36:48.983Z,98077.22
2022-10-17T10:39:47.811Z,98074.56
2022-10-17T10:42:23.782Z,98075.91
2022-10-17T10:44:51.908Z,98077.78
2022-10-17T10:47:30.465Z,98070.00
2022-10-17T10:50:25.325Z,98072.47
2022-10-17T10:52:59.009Z,98076.34
2022-10-17T10:55:30.115Z,98073.59
2022-10-17T10:58:01.470Z,98072.03
2022-10-17T11:00:29.134Z,98072.94
2022-10-17T11:03:12.633Z,98064.59
2022-10-17T11:05:46.112Z,98063.16
2022-10-17T11:08:26.888Z,98070.34
2022-10-17T11:11:05.237Z,98067.16
2022-10-17T11:13:37.666Z,98071.84
2022-10-17T11:16:23.950Z,98078.72
2022-10-17T11:18:58.829Z,98078.59
2022-10-17T11:21:47.433Z,98074.00
2022-10-17T11:24:23.850Z,98068.00
2022-10-17T11:27:01.191Z,98073.50
2022-10-17T11:29:33.219Z,98061.66
2022-10-17T11:32:12.615Z,98072.13
2022-10-17T11:34:46.233Z,98069.44
2022-10-17T11:37:20.296Z,98070.16
2022-10-17T11:39:53.889Z,98069.41
2022-10-17T11:42:49.443Z,98070.09
2022-10-17T11:45:20.193Z,98066.06
2022-10-17T11:47:48.290Z,98069.03
2022-10-17T11:53:24.572Z,98066.25
2022-10-17T11:55:52.555Z,98071.41
2022-10-17T11:58:30.137Z,98067.97
2022-10-17T12:01:00.451Z,98070.22
2022-10-17T12:03:29.953Z,98069.09
2022-10-17T12:05:56.349Z,98072.47
2022-10-17T12:08:31.338Z,98067.59
2022-10-17T12:11:05.277Z,98074.34
2022-10-17T12:13:32.100Z,98079.03
2022-10-17T12:16:21.811Z,98076.28
2022-10-17T12:18:49.345Z,98070.28
2022-10-17T12:21:15.952Z,98077.31
2022-10-17T12:23:51.422Z,98074.25
2022-10-17T12:26:25.713Z,98074.09
2022-10-17T12:28:52.516Z,98072.16
2022-10-17T12:31:19.786Z,98075.75
2022-10-17T12:33:46.131Z,98081.00
2022-10-17T12:36:18.704Z,98078.75
2022-10-17T12:38:49.826Z,98078.06
2022-10-17T12:41:17.218Z,98074.94
2022-10-17T12:46:45.745Z,98075.09
2022-10-17T12:49:21.477Z,98079.50
2022-10-17T12:52:17.803Z,98076.00
2022-10-17T12:55:00.250Z,98084.28
2022-10-17T12:57:58.636Z,98078.31
2022-10-17T13:00:33.664Z,98081.59
2022-10-17T13:03:14.039Z,98089.88
2022-10-17T13:05:45.437Z,98081.91
2022-10-17T13:08:22.441Z,98085.97
2022-10-17T13:10:52.562Z,98091.22
2022-10-17T13:13:33.663Z,98098.19
2022-10-17T13:16:00.244Z,98095.88
2022-10-17T13:18:29.637Z,98091.03
2022-10-17T13:21:02.879Z,98097.38
2022-10-17T13:23:32.877Z,98097.06
2022-10-17T13:26:21.176Z,98090.75
2022-10-17T13:31:44.664Z,98097.63
2022-10-17T13:34:20.592Z,98092.97
2022-10-17T13:36:49.102Z,98096.66
2022-10-17T13:39:27.213Z,98101.25
2022-10-17T13:41:59.424Z,98101.97
2022-10-17T13:44:31.924Z,98104.59
2022-10-17T13:46:58.473Z,98108.78
2022-10-17T13:49:34.378Z,98108.06
2022-10-17T13:52:03.784Z,98108.06
2022-10-17T13:54:36.331Z,98114.34
2022-10-17T13:57:05.061Z,98112.72
2022-10-17T13:59:40.078Z,98113.69
2022-10-17T14:02:13.674Z,98109.91
2022-10-17T14:05:04.734Z,98109.66
2022-10-17T14:08:10.109Z,98113.13
2022-10-17T14:10:37.493Z,98106.16
2022-10-17T14:13:08.133Z,98106.56
2022-10-17T14:15:36.465Z,98111.91
2022-10-17T14:18:08.388Z,98100.81
2022-10-17T14:23:36.090Z,98106.19
2022-10-17T14:26:23.510Z,98111.78
2022-10-17T14:29:18.144Z,98106.38
2022-10-17T14:31:44.574Z,98102.47
2022-10-17T14:34:24.830Z,98106.72
2022-10-17T14:36:52.909Z,98109.78
2022-10-17T14:39:22.573Z,98104.41
2022-10-17T14:41:50.193Z,98110.59
2022-10-17T14:44:23.165Z,98097.06
2022-10-17T14:46:54.541Z,98105.72
2022-10-17T14:49:32.926Z,98103.59
2022-10-17T14:52:14.919Z,98102.03
2022-10-17T14:54:50.152Z,98108.47
2022-10-17T14:57:28.773Z,98104.91
2022-10-17T14:59:56.525Z,98109.69
2022-10-17T15:02:24.642Z,98113.25
2022-10-17T15:04:51.632Z,98113.56
2022-10-17T15:07:18.447Z,98112.78
2022-10-17T15:09:47.295Z,98116.09
2022-10-17T15:12:16.837Z,98112.22
2022-10-17T15:14:44.632Z,98113.28
2022-10-17T15:17:15.235Z,98120.78
2022-10-17T15:19:41.766Z,98121.63
2022-10-17T15:22:08.185Z,98123.53
2022-10-17T15:24:34.622Z,98126.47
2022-10-17T15:27:01.039Z,98119.63
2022-10-17T15:29:28.244Z,98130.47
2022-10-17T15:31:54.656Z,98118.94
2022-10-17T15:34:21.080Z,98120.88
2022-10-17T15:36:51.812Z,98127.50
2022-10-17T15:39:18.219Z,98123.34
2022-10-17T15:41:44.842Z,98121.47
2022-10-17T15:44:11.292Z,98130.53
2022-10-17T15:46:40.997Z,98126.84
2022-10-17T15:49:12.019Z,98126.13
2022-10-17T15:51:38.465Z,98134.56
2022-10-17T15:54:06.166Z,98135.69
2022-10-17T15:56:36.176Z,98145.81
2022-10-17T15:59:05.264Z,98143.59
2022-10-17T16:01:33.249Z,98157.38
2022-10-17T16:04:00.273Z,98149.56
2022-10-17T16:06:26.892Z,98150.06
2022-10-17T16:08:53.314Z,98152.06
2022-10-17T16:11:22.638Z,98150.97
2022-10-17T16:13:53.472Z,98153.19
2022-10-17T16:16:22.025Z,98149.88
2022-10-17T16:18:49.158Z,98145.91
2022-10-17T16:21:17.020Z,98143.63
2022-10-17T16:23:43.997Z,98151.19
2022-10-17T16:26:10.570Z,98145.97
2022-10-17T16:28:37.140Z,98149.50
2022-10-17T16:31:03.726Z,98154.47
2022-10-17T16:33:31.320Z,98160.53
2022-10-17T16:35:57.893Z,98164.66
2022-10-17T16:38:24.296Z,98166.56
2022-10-17T16:40:51.010Z,98174.28
2022-10-17T16:43:17.503Z,98175.31
2022-10-17T16:45:43.918Z,98173.94
2022-10-17T16:48:10.546Z,98181.59
2022-10-17T16:50:39.213Z,98186.78
2022-10-17T16:53:05.674Z,98182.09
2022-10-17T16:55:32.083Z,98188.88
2022-10-17T16:57:59.834Z,98191.31
2022-10-17T17:00:26.433Z,98198.66
2022-10-17T17:02:53.058Z,98199.25
2022-10-17T17:05:19.494Z,98204.94
2022-10-17T17:07:47.807Z,98205.06
2022-10-17T17:10:14.223Z,98203.94
2022-10-17T17:12:40.626Z,98207.91
2022-10-17T17:15:07.255Z,98208.13
2022-10-17T17:17:50.205Z,98211.13
2022-10-17T17:20:18.832Z,98204.78
2022-10-17T17:22:45.270Z,98205.88
2022-10-17T17:25:11.673Z,98207.53
2022-10-17T17:27:38.060Z,98214.06
2022-10-17T17:30:04.860Z,98213.75
2022-10-17T17:32:32.785Z,98215.88
2022-10-17T17:34:59.306Z,98221.09
2022-10-17T17:37:25.938Z,98217.81
2022-10-17T17:39:52.366Z,98224.22
2022-10-17T17:42:19.220Z,98218.53
2022-10-17T17:44:45.748Z,98219.31
2022-10-17T17:47:12.137Z,98218.44
2022-10-17T17:49:38.541Z,98224.09
2022-10-17T17:52:05.095Z,98221.81
2022-10-17T17:54:31.520Z,98228.69
2022-10-17T17:56:57.915Z,98229.31
2022-10-17T17:59:24.312Z,98233.38
2022-10-17T18:01:50.875Z,98241.66
2022-10-17T18:04:17.473Z,98245.56
2022-10-17T18:06:44.019Z,98240.75
2022-10-17T18:09:11.032Z,98253.72
2022-10-17T18:11:37.815Z,98252.59
2022-10-17T18:14:06.925Z,98254.19
2022-10-17T18:16:35.225Z,98249.53
2022-10-17T18:19:07.131Z,98259.09
2022-10-17T18:21:35.079Z,98249.81
2022-10-17T18:24:02.337Z,98252.81
2022-10-17T18:26:28.789Z,98248.94
2022-10-17T18:28:55.240Z,98257.06
2022-10-17T18:31:32.075Z,98255.66
2022-10-17T18:34:00.174Z,98260.72
2022-10-17T18:36:27.931Z,98256.31
2022-10-17T18:38:55.750Z,98261.19
2022-10-17T18:41:25.041Z,98256.81
2022-10-17T18:43:53.405Z,98261.44
2022-10-17T18:46:25.651Z,98261.34
2022-10-17T18:48:52.491Z,98267.41
2022-10-17T18:51:21.870Z,98262.69
2022-10-17T18:53:54.236Z,98266.63
2022-10-17T18:56:21.597Z,98273.81
2022-10-17T18:58:48.580Z,98268.03
2022-10-17T19:01:18.291Z,98267.78
2022-10-17T19:03:48.471Z,98269.72
2022-10-17T19:06:17.097Z,98265.66
2022-10-17T19:08:44.404Z,98273.91
2022-10-17T19:11:16.631Z,98268.84
2022-10-17T19:16:22.419Z,98272.00
2022-10-17T19:18:51.056Z,98272.25
2022-10-17T19:21:21.785Z,98274.13
2022-10-17T19:23:58.673Z,98275.53
2022-10-17T19:26:28.897Z,98279.91
2022-10-17T19:28:56.548Z,98281.63
2022-10-17T19:31:27.159Z,98280.44
2022-10-17T19:33:55.334Z,98274.84
2022-10-17T19:36:27.476Z,98278.28
2022-10-17T19:38:58.026Z,98274.91
2022-10-17T19:41:24.507Z,98274.44
2022-10-17T19:43:51.033Z,98272.63
2022-10-17T19:46:20.371Z,98261.63
2022-10-17T19:48:48.891Z,98255.13
2022-10-17T19:51:16.949Z,98259.84
2022-10-17T19:53:44.851Z,98264.53
2022-10-17T19:56:11.730Z,98272.13
2022-10-17T19:58:45.165Z,98265.53
2022-10-17T20:01:18.354Z,98265.19
2022-10-17T20:03:45.346Z,98267.66
2022-10-17T20:06:11.972Z,98263.47
2022-10-17T20:08:39.554Z,98265.19
2022-10-17T20:11:13.701Z,98268.50
2022-10-17T20:13:40.883Z,98267.50
2022-10-17T20:16:10.479Z,98269.97
2022-10-17T20:18:38.035Z,98265.25
2022-10-17T20:21:07.165Z,98265.00
2022-10-17T20:23:33.838Z,98271.91
2022-10-17T20:26:08.743Z,98275.00
2022-10-17T20:28:46.514Z,98276.66
2022-10-17T20:31:13.546Z,98268.97
2022-10-17T20:33:41.420Z,98274.97
2022-10-17T20:36:11.214Z,98280.31
2022-10-17T20:38:37.700Z,98284.13
2022-10-17T20:41:07.899Z,98284.13
2022-10-17T20:43:35.289Z,98291.69
2022-10-17T20:46:09.793Z,98287.56
2022-10-17T20:48:52.775Z,98294.50
2022-10-17T20:51:20.551Z,98295.06
2022-10-17T20:53:48.228Z,98295.66
2022-10-17T20:56:26.136Z,98290.56
2022-10-17T20:58:59.831Z,98292.28
2022-10-17T21:01:27.750Z,98295.59
2022-10-17T21:03:54.683Z,98288.84
2022-10-17T21:06:23.913Z,98292.97
2022-10-17T21:08:53.252Z,98290.72
2022-10-17T21:11:22.725Z,98282.47
2022-10-17T21:13:55.567Z,98282.16
2022-10-17T21:16:22.762Z,98285.84
2022-10-17T21:18:49.377Z,98288.09
2022-10-17T21:21:27.890Z,98292.78
2022-10-17T21:23:58.170Z,98289.41
2022-10-17T21:26:24.776Z,98294.16
2022-10-17T21:28:51.452Z,98293.66
2022-10-17T21:31:26.614Z,98292.44
2022-10-17T21:33:55.264Z,98296.72
2022-10-17T21:36:22.802Z,98297.22
2022-10-17T21:38:51.266Z,98300.66
2022-10-17T21:41:20.206Z,98301.69
2022-10-17T21:43:47.176Z,98310.13
2022-10-17T21:46:16.631Z,98300.47
2022-10-17T21:48:43.759Z,98295.38
2022-10-17T21:51:13.049Z,98293.75
2022-10-17T21:53:39.851Z,98297.47
2022-10-17T21:56:12.765Z,98297.25
2022-10-17T21:58:40.133Z,98293.44
2022-10-17T22:01:13.910Z,98290.63
2022-10-17T22:03:45.847Z,98291.34
2022-10-17T22:09:08.985Z,98285.13
2022-10-17T22:11:35.743Z,98277.78
2022-10-17T22:14:07.477Z,98279.56
2022-10-17T22:16:34.876Z,98278.91
2022-10-17T22:19:06.132Z,98279.69
2022-10-17T22:21:35.145Z,98279.00
2022-10-17T22:24:06.313Z,98284.53
2022-10-17T22:26:34.745Z,98271.78
2022-10-17T22:29:02.055Z,98273.41
2022-10-17T22:31:28.590Z,98268.81
2022-10-17T22:33:55.951Z,98266.34
2022-10-17T22:36:22.540Z,98265.03
2022-10-17T22:38:49.053Z,98256.88
2022-10-17T22:41:15.572Z,98255.81
2022-10-17T22:43:42.063Z,98258.19
2022-10-17T22:46:10.211Z,98252.75
2022-10-17T22:48:36.841Z,98253.09
2022-10-17T22:51:03.356Z,98256.97
2022-10-17T22:53:29.970Z,98258.59
2022-10-17T22:56:01.852Z,98258.03
2022-10-17T22:58:30.119Z,98260.28
2022-10-17T23:00:57.473Z,98254.25
2022-10-17T23:03:26.247Z,98248.81
2022-10-17T23:05:52.830Z,98248.41
2022-10-17T23:08:19.476Z,98247.19
2022-10-17T23:10:46.702Z,98245.31
2022-10-17T23:13:14.068Z,98243.91
2022-10-17T23:15:41.458Z,98250.97
2022-10-17T23:18:09.656Z,98236.84
2022-10-17T23:20:37.293Z,98234.34
2022-10-17T23:23:04.065Z,98234.25
2022-10-17T23:25:30.768Z,98231.44
2022-10-17T23:27:57.204Z,98228.16
2022-10-17T23:30:23.708Z,98226.25
2022-10-17T23:32:50.108Z,98229.47
2022-10-17T23:35:16.544Z,98219.16
2022-10-17T23:37:42.960Z,98224.13
2022-10-17T23:40:10.082Z,98224.03
2022-10-17T23:42:36.677Z,98231.09
2022-10-17T23:45:03.789Z,98225.09
2022-10-17T23:47:31.263Z,98224.50
2022-10-17T23:49:58.257Z,98224.50
2022-10-17T23:52:24.789Z,98223.19
2022-10-17T23:54:51.252Z,98224.84
2022-10-17T23:57:17.692Z,98229.94
2022-10-17T23:59:44.128Z,98225.91
